Time;durP1;ratioP1;P1;durP2;ratioP2;P2;SDS_P1;SDS_P2;PMS_P1;PMS_P2;Temp;Humidity;BMP_temperature;BMP_pressure;BME280_temperature;BME280_humidity;BME280_pressure;Samples;Min_cycle;Max_cycle;Signal;HPM_P1;HPM_P2
2021/08/14 00:00:40;;;;;;;9.33;8.43;;;;;;;24.65;61.51;95539.47;5054567;28;20437;-82
2021/08/14 00:03:09;;;;;;;8.83;8.03;;;;;;;24.71;61.81;95534.13;5054046;28;20440;-82
2021/08/14 00:05:35;;;;;;;8.83;7.97;;;;;;;24.75;62.18;95539.09;5054775;28;20782;-82
2021/08/14 00:08:02;;;;;;;10.67;9.67;;;;;;;24.77;61.32;95543.22;5054540;28;20455;-83
2021/08/14 00:10:29;;;;;;;11.00;9.87;;;;;;;24.80;62.19;95542.00;5053983;28;20529;-82
2021/08/14 00:12:56;;;;;;;11.00;9.90;;;;;;;24.80;61.27;95544.66;5053908;28;20871;-82
2021/08/14 00:15:23;;;;;;;10.00;9.00;;;;;;;24.64;61.61;95544.03;5054572;28;20582;-82
2021/08/14 00:17:50;;;;;;;9.40;8.50;;;;;;;24.61;61.53;95546.28;5053846;28;20448;-82
2021/08/14 00:20:19;;;;;;;10.23;9.23;;;;;;;24.51;61.38;95535.06;5053716;28;20920;-82
2021/08/14 00:22:48;;;;;;;12.87;8.90;;;;;;;24.48;61.95;95540.84;5053383;28;20941;-82
2021/08/14 00:25:16;;;;;;;9.37;8.40;;;;;;;24.48;62.14;95538.16;5054059;28;20528;-82
2021/08/14 00:27:43;;;;;;;10.03;9.13;;;;;;;24.42;61.96;95549.69;5054022;28;20498;-82
2021/08/14 00:30:11;;;;;;;12.57;9.33;;;;;;;24.41;62.49;95556.91;5053548;28;20842;-82
2021/08/14 00:32:38;;;;;;;9.67;8.77;;;;;;;24.40;62.27;95558.78;5053595;28;20440;-82
2021/08/14 00:35:05;;;;;;;9.90;8.87;;;;;;;24.41;63.06;95559.59;5053739;28;20478;-82
2021/08/14 00:37:34;;;;;;;8.87;8.03;;;;;;;24.40;63.17;95564.13;5053827;28;20439;-82
2021/08/14 00:40:00;;;;;;;10.10;9.20;;;;;;;24.41;62.96;95567.66;5035249;28;20477;-82
2021/08/14 00:42:27;;;;;;;9.40;8.53;;;;;;;24.39;62.93;95577.75;5053776;28;20526;-82
2021/08/14 00:44:55;;;;;;;9.40;8.60;;;;;;;24.48;63.31;95568.50;5053756;28;20455;-82
2021/08/14 00:47:25;;;;;;;12.23;10.53;;;;;;;24.48;62.23;95565.81;5054339;28;20428;-82
2021/08/14 00:49:52;;;;;;;9.60;8.60;;;;;;;24.45;62.21;95574.28;5053713;28;20444;-83
2021/08/14 00:52:19;;;;;;;8.57;7.77;;;;;;;24.45;62.79;95570.75;5053307;28;20433;-82
2021/08/14 00:54:47;;;;;;;9.47;8.37;;;;;;;24.42;62.52;95568.47;5053530;28;20521;-82
2021/08/14 00:57:15;;;;;;;10.60;9.60;;;;;;;24.42;62.91;95561.25;5053147;28;20569;-82
2021/08/14 00:59:43;;;;;;;11.13;9.10;;;;;;;24.37;62.85;95577.13;5053926;28;20426;-83
2021/08/14 01:02:10;;;;;;;12.13;8.33;;;;;;;24.29;62.89;95567.41;5053225;28;20429;-82
2021/08/14 01:04:37;;;;;;;9.97;8.97;;;;;;;24.17;62.85;95562.75;5054022;28;21049;-82
2021/08/14 01:07:04;;;;;;;10.03;9.07;;;;;;;24.05;63.82;95560.63;5053085;28;20447;-82
2021/08/14 01:09:31;;;;;;;8.93;8.03;;;;;;;24.04;63.98;95564.31;5053115;28;20953;-82
2021/08/14 01:12:01;;;;;;;8.90;8.20;;;;;;;23.92;64.15;95552.47;5053520;28;20428;-82
2021/08/14 01:14:29;;;;;;;8.90;8.00;;;;;;;23.94;64.83;95554.97;5053362;28;20452;-82
2021/08/14 01:16:56;;;;;;;8.97;8.07;;;;;;;23.99;64.86;95561.38;5053241;28;20483;-83
2021/08/14 01:19:24;;;;;;;9.73;8.73;;;;;;;23.93;64.76;95561.34;5052938;28;20448;-83
2021/08/14 01:21:52;;;;;;;9.83;8.83;;;;;;;23.85;64.57;95561.50;5053156;28;20526;-81
2021/08/14 01:24:19;;;;;;;9.50;8.60;;;;;;;23.68;65.11;95555.59;5052893;28;20809;-81
2021/08/14 01:26:48;;;;;;;10.43;9.33;;;;;;;23.68;65.39;95560.97;5053481;28;20841;-82
2021/08/14 01:29:15;;;;;;;9.53;8.73;;;;;;;23.70;65.28;95551.69;5034652;28;20825;-82
2021/08/14 01:31:43;;;;;;;9.53;8.40;;;;;;;23.67;65.37;95551.25;5052954;28;20460;-82
2021/08/14 01:34:10;;;;;;;7.83;7.23;;;;;;;23.75;65.65;95557.31;5053500;28;20449;-81
2021/08/14 01:36:37;;;;;;;9.00;8.23;;;;;;;23.73;64.96;95555.88;5055772;28;20486;-82
2021/08/14 01:39:05;;;;;;;9.37;8.50;;;;;;;23.64;65.55;95546.28;5056865;28;20437;-82
2021/08/14 01:41:32;;;;;;;11.70;8.73;;;;;;;23.62;65.36;95546.50;5057218;28;20441;-82
2021/08/14 01:44:03;;;;;;;8.57;7.47;;;;;;;23.57;65.80;95554.28;5056700;28;20449;-82
2021/08/14 02:00:05;;;;;;;9.40;8.40;;;;;;;23.21;66.94;95557.03;5057153;28;20392;-82
2021/08/14 02:02:32;;;;;;;9.97;9.00;;;;;;;23.05;67.85;95550.06;5056868;28;20439;-82
2021/08/14 02:04:59;;;;;;;9.10;8.30;;;;;;;23.01;67.74;95550.66;5056430;28;20797;-82
2021/08/14 02:07:26;;;;;;;8.53;7.67;;;;;;;22.79;68.46;95547.91;5056637;28;20451;-82
2021/08/14 02:09:53;;;;;;;15.00;8.80;;;;;;;22.78;68.85;95546.25;5056765;28;20995;-82
2021/08/14 02:12:20;;;;;;;10.53;9.63;;;;;;;22.61;69.10;95546.69;5056549;28;20438;-81
2021/08/14 02:14:47;;;;;;;9.53;8.53;;;;;;;22.49;69.53;95547.16;5056817;28;20460;-81
2021/08/14 02:17:15;;;;;;;9.90;9.03;;;;;;;22.54;70.17;95546.59;5056166;28;20478;-82
2021/08/14 02:19:42;;;;;;;9.43;8.30;;;;;;;22.52;69.71;95543.28;5056261;28;20441;-82
2021/08/14 02:22:09;;;;;;;9.87;8.87;;;;;;;22.59;70.21;95546.88;5056923;28;20495;-83
2021/08/14 02:24:36;;;;;;;10.03;8.77;;;;;;;22.64;69.74;95539.13;5055950;28;20436;-82
2021/08/14 02:27:03;;;;;;;9.87;8.87;;;;;;;22.64;69.86;95535.63;5056258;28;20510;-82
2021/08/14 02:29:30;;;;;;;9.00;8.10;;;;;;;22.59;69.79;95541.53;5055910;28;20989;-82
2021/08/14 02:31:57;;;;;;;8.67;7.80;;;;;;;22.59;70.28;95541.53;5055971;28;20444;-82
2021/08/14 02:34:26;;;;;;;9.47;8.40;;;;;;;22.54;70.19;95541.25;5056707;28;20524;-82
2021/08/14 02:36:53;;;;;;;9.30;8.50;;;;;;;22.46;70.48;95541.38;5056082;28;20478;-82
2021/08/14 02:39:20;;;;;;;10.93;8.77;;;;;;;22.44;70.78;95544.22;5021087;28;20465;-82
2021/08/14 02:41:47;;;;;;;9.50;8.50;;;;;;;22.44;71.13;95546.06;5056104;28;20826;-82
2021/08/14 02:44:14;;;;;;;10.20;9.30;;;;;;;22.42;70.70;95545.44;5055771;28;20428;-82
2021/08/14 02:46:41;;;;;;;9.87;8.60;;;;;;;22.47;71.43;95551.03;5036897;28;20443;-83
2021/08/14 03:16:05;;;;;;;12.27;10.70;;;;;;;22.07;73.47;95574.59;5055131;28;20457;-83
2021/08/14 03:18:32;;;;;;;11.73;9.57;;;;;;;22.23;72.24;95578.91;5055285;28;20443;-82
2021/08/14 03:20:59;;;;;;;8.83;8.00;;;;;;;22.43;71.64;95573.84;5055168;28;20787;-82
2021/08/14 03:23:26;;;;;;;9.27;8.27;;;;;;;22.57;70.83;95575.66;5054912;28;20446;-82
2021/08/14 03:25:53;;;;;;;15.63;9.00;;;;;;;22.68;70.41;95577.84;5055126;28;20946;-82
2021/08/14 03:28:20;;;;;;;9.50;8.60;;;;;;;22.80;69.25;95581.69;5055322;28;20454;-82
2021/08/14 03:30:47;;;;;;;9.53;8.63;;;;;;;22.88;69.17;95586.16;5055351;28;20472;-82
2021/08/14 03:33:15;;;;;;;9.53;8.53;;;;;;;22.93;69.11;95590.94;5055872;28;20772;-82
2021/08/14 03:35:42;;;;;;;10.07;9.07;;;;;;;22.98;69.10;95596.53;5055058;28;20443;-82
2021/08/14 03:38:09;;;;;;;9.03;8.13;;;;;;;23.06;68.75;95596.41;5036413;28;20950;-82
2021/08/14 03:40:36;;;;;;;9.33;8.27;;;;;;;23.09;68.33;95602.22;5054550;28;20514;-82
2021/08/14 03:43:03;;;;;;;9.37;8.37;;;;;;;23.07;69.54;95598.91;5054909;28;20524;-83
2021/08/14 03:45:30;;;;;;;9.53;8.50;;;;;;;23.06;68.34;95596.41;5054856;28;20516;-82
2021/08/14 03:47:57;;;;;;;9.57;8.70;;;;;;;23.06;67.68;95607.13;5054511;28;20523;-83
2021/08/14 04:10:36;;;;;;;9.60;8.60;;;;;;;23.48;66.65;95617.88;5054271;28;20471;-83
2021/08/14 04:13:02;;;;;;;9.97;9.00;;;;;;;23.70;65.81;95609.81;5053932;28;20439;-83
2021/08/14 04:15:31;;;;;;;8.13;7.30;;;;;;;24.05;65.04;95605.38;5054138;28;20443;-82
2021/08/14 04:17:58;;;;;;;9.03;8.13;;;;;;;24.46;63.07;95613.50;5054315;28;20485;-83
2021/08/14 04:20:25;;;;;;;8.57;7.77;;;;;;;24.83;61.78;95606.84;5054072;28;20444;-82
2021/08/14 04:22:52;;;;;;;8.67;6.77;;;;;;;25.24;59.46;95606.81;5054020;28;20432;-82
2021/08/14 04:25:18;;;;;;;8.53;7.40;;;;;;;25.45;58.74;95599.63;5053759;28;20437;-81
2021/08/14 04:27:47;;;;;;;7.63;6.93;;;;;;;25.60;58.20;95594.88;5053986;28;20449;-81
2021/08/14 04:30:14;;;;;;;8.40;7.70;;;;;;;25.84;57.60;95605.03;5054011;28;20565;-82
2021/08/14 04:32:41;;;;;;;8.90;8.20;;;;;;;26.10;56.99;95608.75;5053856;28;20463;-82
2021/08/14 04:35:11;;;;;;;8.33;7.60;;;;;;;26.32;55.71;95607.50;5053878;28;20452;-82
2021/08/14 04:37:39;;;;;;;8.93;7.30;;;;;;;26.51;55.78;95608.50;5053706;28;20511;-81
2021/08/14 04:40:09;;;;;;;10.80;7.60;;;;;;;26.85;54.51;95607.34;5054249;28;20437;-82
2021/08/14 04:42:39;;;;;;;7.77;6.80;;;;;;;27.30;53.01;95604.66;5035537;28;20448;-82
2021/08/14 04:45:09;;;;;;;7.13;6.50;;;;;;;27.84;51.70;95600.59;5054118;28;20769;-82
2021/08/14 04:47:36;;;;;;;8.67;6.87;;;;;;;27.99;50.78;95599.19;5054136;28;20445;-82
2021/08/14 04:50:04;;;;;;;6.90;6.27;;;;;;;28.10;50.05;95591.44;5053732;28;20534;-82
2021/08/14 04:52:31;;;;;;;8.67;7.87;;;;;;;28.08;49.71;95597.06;5053428;28;20446;-82
2021/08/14 04:54:58;;;;;;;8.47;7.67;;;;;;;28.12;49.67;95597.44;5054008;28;20806;-82
2021/08/14 04:57:25;;;;;;;8.00;7.30;;;;;;;28.12;51.26;95594.75;5053596;28;20488;-82
2021/08/14 04:59:52;;;;;;;7.97;7.10;;;;;;;28.15;50.52;95589.72;5053943;28;20448;-86
2021/08/14 05:02:21;;;;;;;7.00;6.40;;;;;;;28.41;49.40;95590.53;5053744;28;20470;-85
2021/08/14 05:04:48;;;;;;;7.67;6.87;;;;;;;28.68;49.24;95595.44;5054066;28;20933;-86
2021/08/14 05:07:15;;;;;;;7.20;6.60;;;;;;;29.06;48.53;95596.25;5053196;28;20453;-87
2021/08/14 05:09:43;;;;;;;8.73;7.23;;;;;;;29.36;48.45;95596.25;5053019;28;20448;-86
2021/08/14 05:12:10;;;;;;;10.03;9.07;;;;;;;29.68;49.40;95600.38;5053266;28;20492;-87
2021/08/14 05:14:38;;;;;;;12.03;9.70;;;;;;;30.03;48.13;95602.34;5053991;28;20544;-85
2021/08/14 05:17:05;;;;;;;8.87;8.03;;;;;;;30.43;47.32;95605.19;5019283;28;20482;-89
2021/08/14 05:19:33;;;;;;;10.17;9.20;;;;;;;30.65;46.05;95608.97;5053419;28;20455;-86
2021/08/14 05:22:00;;;;;;;9.63;7.77;;;;;;;30.62;45.33;95604.00;5053019;28;20448;-86
2021/08/14 05:24:27;;;;;;;9.10;8.20;;;;;;;30.68;47.46;95605.78;5034747;28;20460;-85
2021/08/14 05:26:54;;;;;;;9.77;8.77;;;;;;;30.41;46.53;95602.72;5053235;28;20524;-82
2021/08/14 05:29:21;;;;;;;9.50;8.40;;;;;;;30.50;46.52;95611.31;5052940;28;20445;-84
2021/08/14 05:31:48;;;;;;;13.80;7.43;;;;;;;30.47;45.68;95606.38;5053054;28;20436;-84
2021/08/14 05:34:15;;;;;;;14.70;9.47;;;;;;;30.53;45.67;95597.28;5053037;28;20443;-82
2021/08/14 05:36:43;;;;;;;13.47;9.60;;;;;;;30.78;46.01;95605.19;5053669;28;20556;-84
2021/08/14 05:39:10;;;;;;;18.37;12.70;;;;;;;30.98;45.85;95616.47;5053784;28;20805;-83
2021/08/14 05:41:39;;;;;;;11.97;10.57;;;;;;;30.79;45.10;95607.66;5053595;28;20442;-83
2021/08/14 05:44:07;;;;;;;12.20;9.87;;;;;;;30.56;45.35;95602.22;5035301;28;20496;-82
2021/08/14 05:46:34;;;;;;;12.07;9.20;;;;;;;30.55;45.47;95607.88;5053041;28;20422;-82
2021/08/14 05:49:01;;;;;;;9.40;8.60;;;;;;;30.60;45.34;95603.44;5053315;28;20428;-82
2021/08/14 05:51:28;;;;;;;8.50;7.47;;;;;;;30.44;45.54;95596.81;5068346;28;20441;-82
2021/08/14 05:53:56;;;;;;;8.63;7.27;;;;;;;30.54;45.28;95607.06;5053522;28;20521;-84
2021/08/14 05:56:23;;;;;;;13.30;6.50;;;;;;;30.93;44.78;95608.19;5052609;28;20438;-82
2021/08/14 05:58:50;;;;;;;8.63;7.30;;;;;;;31.01;44.07;95613.25;5053548;28;20448;-81
2021/08/14 06:01:17;;;;;;;9.90;7.20;;;;;;;30.89;44.10;95607.03;5053033;28;20983;-82
2021/08/14 06:03:44;;;;;;;7.27;6.67;;;;;;;30.92;44.40;95606.53;5034451;28;20532;-83
2021/08/14 06:06:11;;;;;;;7.47;6.87;;;;;;;31.13;43.58;95599.66;5052956;28;20458;-84
2021/08/14 06:08:37;;;;;;;8.70;7.80;;;;;;;31.00;43.25;95614.31;5052461;28;20926;-84
2021/08/14 06:11:12;;;;;;;8.13;7.33;;;;;;;30.85;43.11;95611.28;5063858;28;20516;-84
2021/08/14 06:13:39;;;;;;;8.50;7.40;;;;;;;30.60;43.57;95610.69;5072866;28;20510;-83
2021/08/14 06:16:09;;;;;;;7.70;6.83;;;;;;;30.38;43.97;95607.78;5072094;28;20454;-82
2021/08/14 06:55:03;;;;;;;10.87;7.13;;;;;;;30.37;45.24;95606.16;5048997;28;20536;-81
2021/08/14 06:57:31;;;;;;;7.37;6.67;;;;;;;30.26;45.53;95599.66;5075241;28;20975;-82
2021/08/14 06:59:59;;;;;;;7.50;6.90;;;;;;;30.41;45.38;95601.91;5075091;28;20483;-83
2021/08/14 07:02:26;;;;;;;7.67;6.70;;;;;;;30.25;44.81;95602.59;5074729;28;21101;-83
2021/08/14 07:04:53;;;;;;;9.10;6.80;;;;;;;30.40;45.38;95597.53;5074309;28;20444;-82
2021/08/14 07:34:46;;;;;;;8.13;6.77;;;;;;;31.91;40.69;95593.56;5074647;28;20439;-82
2021/08/14 07:37:13;;;;;;;8.10;7.37;;;;;;;31.88;41.11;95585.91;5074010;28;20510;-82
2021/08/14 07:39:40;;;;;;;8.13;7.43;;;;;;;31.88;40.54;95591.34;5072416;28;20439;-81
2021/08/14 07:42:07;;;;;;;8.20;6.80;;;;;;;31.92;42.20;95594.38;5037840;28;20527;-83
2021/08/14 07:44:34;;;;;;;8.43;7.63;;;;;;;31.77;40.66;95592.22;5038551;28;20441;-85
2021/08/14 07:47:01;;;;;;;8.03;7.20;;;;;;;31.84;41.68;95587.47;5072856;28;20449;-82
2021/08/14 07:49:28;;;;;;;10.00;7.20;;;;;;;31.75;40.67;95586.22;5072529;28;20451;-82
2021/08/14 07:51:57;;;;;;;9.83;7.20;;;;;;;31.52;41.60;95594.47;5071985;28;20469;-82
2021/08/14 07:54:24;;;;;;;8.23;7.37;;;;;;;31.36;42.19;95591.47;5072580;28;20447;-82
2021/08/14 07:56:50;;;;;;;7.27;6.63;;;;;;;31.44;42.96;95591.06;5073259;28;20472;-82
2021/08/14 07:59:17;;;;;;;7.23;6.53;;;;;;;31.53;42.11;95582.56;5073452;28;20535;-82
2021/08/14 08:01:44;;;;;;;11.50;7.73;;;;;;;31.70;42.66;95583.38;5038042;28;20455;-82
2021/08/14 08:04:11;;;;;;;10.77;7.17;;;;;;;31.82;40.27;95586.91;5073128;28;20445;-82
2021/08/14 08:06:38;;;;;;;10.73;7.10;;;;;;;31.94;40.92;95579.47;5073935;28;20455;-82
2021/08/14 08:09:06;;;;;;;8.13;6.70;;;;;;;32.11;42.29;95584.09;5074089;28;20432;-82
2021/08/14 08:11:33;;;;;;;7.40;6.80;;;;;;;32.20;41.79;95574.44;5074439;28;20445;-82
2021/08/14 08:14:00;;;;;;;7.33;6.60;;;;;;;32.20;40.33;95577.16;5074421;28;20539;-82
2021/08/14 08:16:27;;;;;;;12.40;7.40;;;;;;;31.98;38.79;95586.06;5073913;28;20440;-82
2021/08/14 08:18:54;;;;;;;6.70;6.10;;;;;;;31.77;39.29;95585.97;5038637;28;20815;-82
2021/08/14 08:21:21;;;;;;;8.00;6.77;;;;;;;31.97;39.58;95578.97;5074036;28;20532;-81
2021/08/14 08:23:48;;;;;;;8.03;6.30;;;;;;;32.15;37.72;95574.38;5074309;28;20468;-81
2021/08/14 08:26:16;;;;;;;10.70;5.97;;;;;;;32.34;37.37;95575.78;5073925;28;20448;-82
2021/08/14 08:28:43;;;;;;;8.23;6.60;;;;;;;32.24;36.58;95570.16;5074162;28;20459;-82
2021/08/14 08:31:10;;;;;;;9.00;6.27;;;;;;;32.13;35.63;95565.66;5073750;28;20539;-82
2021/08/14 08:33:37;;;;;;;12.93;5.70;;;;;;;32.30;35.52;95569.19;5073345;28;20463;-81
2021/08/14 08:36:04;;;;;;;10.13;6.13;;;;;;;31.96;36.01;95577.34;5071873;28;20536;-83
2021/08/14 08:38:31;;;;;;;6.03;5.53;;;;;;;32.16;33.73;95562.44;5072477;28;20575;-82
2021/08/14 08:40:58;;;;;;;8.43;5.90;;;;;;;32.36;35.04;95560.03;5073497;28;20533;-82
2021/08/14 08:43:27;;;;;;;7.30;6.50;;;;;;;32.46;34.88;95562.91;5073520;28;20773;-81
2021/08/14 08:45:54;;;;;;;6.67;6.07;;;;;;;32.59;34.32;95556.28;5072933;28;20814;-82
2021/08/14 08:48:22;;;;;;;8.90;6.63;;;;;;;32.72;35.11;95563.25;5073341;28;20536;-82
2021/08/14 08:50:49;;;;;;;8.80;8.00;;;;;;;32.65;33.49;95558.00;5038092;28;20433;-81
2021/08/14 08:53:17;;;;;;;8.73;7.87;;;;;;;32.59;34.37;95559.81;5073388;28;20449;-81
2021/08/14 08:55:44;;;;;;;8.80;7.90;;;;;;;32.27;35.08;95566.97;5073025;28;20467;-82
2021/08/14 08:58:11;;;;;;;9.53;8.63;;;;;;;32.22;34.69;95554.13;5073155;28;20488;-81
2021/08/14 09:00:39;;;;;;;11.53;8.37;;;;;;;32.28;33.84;95557.75;5073112;28;20455;-81
2021/08/14 09:03:09;;;;;;;9.10;8.33;;;;;;;32.42;33.99;95550.91;5073249;28;20958;-82
2021/08/14 09:05:46;;;;;;;9.03;8.00;;;;;;;32.60;33.67;95541.63;5037488;28;20436;-81
2021/08/14 09:08:14;;;;;;;7.67;7.03;;;;;;;32.63;32.89;95543.81;5069606;28;20506;-81
2021/08/14 09:10:41;;;;;;;9.20;8.17;;;;;;;32.64;33.43;95540.84;5038239;28;20452;-82
2021/08/14 09:13:12;;;;;;;9.27;8.47;;;;;;;32.63;33.29;95541.94;5072752;28;20444;-82
2021/08/14 09:15:41;;;;;;;13.40;8.73;;;;;;;32.66;33.93;95541.41;5054652;28;20779;-82
2021/08/14 09:18:09;;;;;;;9.57;8.57;;;;;;;32.71;34.86;95537.16;5072954;28;20484;-82
2021/08/14 09:20:50;;;;;;;10.53;9.43;;;;;;;32.31;35.75;95536.34;5038133;28;20449;-81
2021/08/14 09:23:17;;;;;;;10.60;9.70;;;;;;;32.34;33.51;95529.59;5072923;28;20947;-82
2021/08/14 09:25:46;;;;;;;10.10;9.30;;;;;;;32.53;34.64;95528.22;5071663;28;20610;-81
2021/08/14 09:28:14;;;;;;;11.43;9.37;;;;;;;31.72;34.47;95521.56;5072866;28;20455;-82
2021/08/14 09:30:48;;;;;;;10.07;9.20;;;;;;;31.83;34.86;95528.81;5072948;28;20444;-86
2021/08/14 09:33:16;;;;;;;9.40;8.70;;;;;;;31.48;35.64;95523.56;5072645;28;20886;-82
2021/08/14 09:35:44;;;;;;;9.87;8.97;;;;;;;31.53;35.45;95525.56;5073352;28;20851;-83
2021/08/14 09:38:13;;;;;;;10.27;9.23;;;;;;;31.67;35.63;95518.75;5073065;28;20475;-83
2021/08/14 09:40:42;;;;;;;11.43;8.77;;;;;;;31.80;37.33;95517.59;5073014;28;21013;-82
2021/08/14 09:43:09;;;;;;;11.03;9.00;;;;;;;32.03;35.93;95512.00;5072968;28;20429;-83
2021/08/14 09:45:37;;;;;;;10.83;9.80;;;;;;;32.21;35.43;95513.63;5073378;28;20846;-83
2021/08/14 09:48:20;;;;;;;10.10;9.03;;;;;;;32.11;35.22;95508.06;5073233;28;20487;-82
2021/08/14 09:50:47;;;;;;;10.83;9.93;;;;;;;31.94;34.18;95499.91;5073246;28;20440;-82
2021/08/14 09:53:18;;;;;;;12.33;11.13;;;;;;;31.68;35.49;95509.53;5072576;28;20451;-82
2021/08/14 09:55:47;;;;;;;11.60;10.40;;;;;;;31.53;35.09;95509.28;5072546;28;20465;-82
2021/08/14 09:58:20;;;;;;;10.73;9.83;;;;;;;31.48;35.51;95501.88;5076707;28;20485;-82
2021/08/14 10:00:49;;;;;;;11.37;10.40;;;;;;;31.35;35.62;95488.63;5076781;28;20944;-82
2021/08/14 10:03:18;;;;;;;12.03;10.83;;;;;;;31.43;36.01;95478.19;5058076;28;20519;-81
2021/08/14 10:05:46;;;;;;;11.70;10.63;;;;;;;31.05;37.05;95489.69;5076452;28;20908;-82
2021/08/14 10:08:14;;;;;;;11.10;10.13;;;;;;;31.06;35.95;95487.81;5077042;28;20444;-82
2021/08/14 10:10:41;;;;;;;11.37;10.20;;;;;;;31.02;34.62;95487.47;5076751;28;20448;-82
2021/08/14 10:13:10;;;;;;;11.90;10.70;;;;;;;31.20;35.63;95481.03;5076703;28;20454;-80
2021/08/14 10:15:38;;;;;;;11.73;10.50;;;;;;;31.36;35.91;95477.53;5076075;28;20445;-86
2021/08/14 10:18:05;;;;;;;12.67;11.40;;;;;;;31.46;34.40;95484.19;5076565;28;20491;-82
2021/08/14 10:20:34;;;;;;;11.60;10.60;;;;;;;31.38;34.82;95477.28;5076562;28;20531;-83
2021/08/14 10:23:04;;;;;;;16.90;12.20;;;;;;;31.41;35.14;95477.63;5041219;28;20446;-84
2021/08/14 10:25:32;;;;;;;11.40;10.30;;;;;;;31.12;36.44;95470.56;5041794;28;20523;-83
2021/08/14 10:28:00;;;;;;;12.43;11.23;;;;;;;31.06;35.32;95466.94;5076254;28;20468;-82
2021/08/14 10:41:00;;;;;;;11.70;10.70;;;;;;;31.04;34.75;95463.66;5074946;28;20481;-84
2021/08/14 10:44:02;;;;;;;11.37;10.47;;;;;;;30.83;36.59;95454.31;5076922;28;20438;-83
2021/08/14 10:46:48;;;;;;;11.87;10.83;;;;;;;30.95;36.33;95450.75;5075042;28;20429;-83
2021/08/14 10:49:19;;;;;;;11.03;10.03;;;;;;;31.17;35.74;95451.69;5076237;28;20433;-84
2021/08/14 10:52:09;;;;;;;11.57;10.57;;;;;;;31.39;35.17;95443.66;5075965;28;20516;-83
2021/08/14 10:55:14;;;;;;;11.60;10.60;;;;;;;31.63;35.55;95431.56;5074181;28;20440;-83
2021/08/14 10:57:51;;;;;;;11.40;10.40;;;;;;;31.68;34.32;95444.38;5073984;28;20464;-83
2021/08/14 11:00:27;;;;;;;11.90;10.90;;;;;;;31.64;33.55;95435.94;5075544;28;20924;-84
2021/08/14 11:10:08;;;;;;;10.50;9.57;;;;;;;30.67;35.33;95436.16;5075397;28;20493;-84
2021/08/14 11:12:39;;;;;;;10.40;9.43;;;;;;;30.75;35.07;95434.94;5075128;28;20428;-84
2021/08/14 11:15:17;;;;;;;12.27;11.00;;;;;;;30.98;34.54;95429.41;5056512;28;21333;-84
2021/08/14 11:17:45;;;;;;;14.10;9.70;;;;;;;30.93;33.52;95426.56;5075657;28;20528;-83
2021/08/14 11:20:42;;;;;;;9.97;9.10;;;;;;;30.96;33.89;95428.81;5075292;28;20449;-84
2021/08/14 11:23:32;;;;;;;10.63;9.67;;;;;;;30.91;34.36;95417.03;4964689;28;20450;-83
2021/08/14 11:25:59;;;;;;;11.33;10.20;;;;;;;31.05;36.71;95418.38;4955089;29;20873;-84
2021/08/14 11:28:28;;;;;;;10.37;9.47;;;;;;;31.28;33.99;95410.13;4954756;29;20443;-84
2021/08/14 11:31:01;;;;;;;10.23;9.23;;;;;;;31.34;33.66;95417.28;4954858;29;20446;-84
2021/08/14 11:33:28;;;;;;;10.57;8.80;;;;;;;31.32;32.41;95408.56;4953272;29;20476;-84
2021/08/14 11:36:05;;;;;;;9.73;8.87;;;;;;;31.30;32.47;95410.72;4953364;29;20546;-82
2021/08/14 11:38:37;;;;;;;11.43;9.07;;;;;;;31.31;32.50;95401.50;4921686;29;20496;-83
2021/08/14 11:41:11;;;;;;;10.03;9.03;;;;;;;31.22;31.94;95397.53;4953759;29;20457;-83
2021/08/14 11:43:40;;;;;;;10.00;9.00;;;;;;;31.32;33.30;95402.31;4952934;29;20465;-82
2021/08/14 11:46:10;;;;;;;9.70;8.70;;;;;;;31.36;31.70;95395.34;4954426;29;20478;-85
2021/08/14 11:48:44;;;;;;;10.40;9.23;;;;;;;31.29;32.89;95392.78;4954370;29;20342;-87
2021/08/14 11:51:19;;;;;;;10.63;9.53;;;;;;;31.09;32.52;95397.84;4923365;29;20209;-84
2021/08/14 11:53:46;;;;;;;8.77;7.67;;;;;;;31.02;33.04;95391.78;4954455;29;20442;-83
2021/08/14 11:56:15;;;;;;;13.70;8.37;;;;;;;30.98;34.15;95396.88;4957212;28;20478;-83
2021/08/14 11:58:42;;;;;;;9.17;8.23;;;;;;;30.62;33.90;95398.09;4998531;28;20482;-83
2021/08/14 12:01:12;;;;;;;9.50;8.70;;;;;;;30.50;33.71;95398.13;5031713;28;20442;-84
2021/08/14 12:03:39;;;;;;;8.40;7.57;;;;;;;30.23;34.20;95391.63;5050572;28;20446;-84
2021/08/14 12:23:25;;;;;;;7.10;6.50;;;;;;;31.20;31.35;95371.75;5069588;28;20454;-83
2021/08/14 12:25:53;;;;;;;6.67;6.20;;;;;;;31.19;32.09;95373.63;5009822;28;20446;-84
2021/08/14 12:28:25;;;;;;;7.90;7.00;;;;;;;31.17;32.08;95373.06;5010077;28;20967;-84
2021/08/14 12:30:52;;;;;;;13.90;7.60;;;;;;;31.12;31.85;95373.78;5010212;28;20439;-83
2021/08/14 12:33:24;;;;;;;7.60;6.90;;;;;;;31.38;32.14;95372.31;5010816;28;20924;-84
2021/08/14 12:49:27;;;;;;;7.50;6.90;;;;;;;31.50;30.60;95345.06;5011175;28;20418;-84
2021/08/14 12:51:58;;;;;;;6.37;5.87;;;;;;;31.16;29.98;95341.59;5012121;28;20446;-83
2021/08/14 12:54:26;;;;;;;7.13;6.37;;;;;;;31.26;31.09;95328.22;5011508;28;20450;-83
2021/08/14 12:56:53;;;;;;;7.00;6.33;;;;;;;31.07;30.99;95340.34;5011421;28;21049;-82
2021/08/14 12:59:19;;;;;;;6.10;5.63;;;;;;;31.07;30.13;95334.91;4963349;28;20490;-82
2021/08/14 13:01:54;;;;;;;7.00;6.30;;;;;;;31.07;30.33;95335.75;5047384;28;20451;-83
2021/08/14 13:04:21;;;;;;;8.90;7.20;;;;;;;30.88;32.17;95331.63;5054828;28;20436;-82
2021/08/14 13:06:50;;;;;;;7.00;6.30;;;;;;;30.61;31.75;95331.44;5073242;28;20963;-82
2021/08/14 13:09:17;;;;;;;7.17;6.57;;;;;;;30.61;31.60;95328.72;5038413;28;20995;-81
2021/08/14 13:11:44;;;;;;;7.67;6.97;;;;;;;30.49;31.87;95320.63;5073185;28;20516;-82
2021/08/14 13:14:11;;;;;;;6.33;5.50;;;;;;;30.48;31.99;95326.31;5073541;28;20449;-83
2021/08/14 13:16:38;;;;;;;7.43;6.90;;;;;;;30.58;31.87;95321.06;5073154;28;20520;-83
2021/08/14 13:35:55;;;;;;;6.03;5.60;;;;;;;31.18;31.39;95317.75;5077086;28;20420;-80
2021/08/14 13:38:22;;;;;;;8.03;6.53;;;;;;;31.23;31.45;95322.47;5077788;28;21175;-81
2021/08/14 13:40:49;;;;;;;7.00;6.40;;;;;;;31.32;31.74;95310.13;5077436;28;20440;-82
2021/08/14 13:43:16;;;;;;;6.57;5.97;;;;;;;31.31;31.14;95312.00;5076903;28;20447;-82
2021/08/14 13:45:45;;;;;;;6.20;5.70;;;;;;;31.24;31.84;95314.06;5077050;28;20907;-82
2021/08/14 13:48:12;;;;;;;6.70;5.97;;;;;;;31.28;33.32;95303.53;5042023;28;20447;-82
2021/08/14 13:50:40;;;;;;;8.07;7.03;;;;;;;31.39;32.93;95306.13;5077386;28;20449;-82
2021/08/14 13:53:08;;;;;;;11.30;6.20;;;;;;;31.30;31.97;95310.38;5077074;28;20441;-82
2021/08/14 13:55:38;;;;;;;6.93;6.43;;;;;;;31.20;34.78;95304.75;5041531;28;20466;-82
2021/08/14 13:58:05;;;;;;;9.47;8.40;;;;;;;31.05;35.42;95316.19;5076997;28;20445;-82
2021/08/14 14:00:32;;;;;;;7.40;6.70;;;;;;;30.91;33.39;95297.78;5077141;28;20490;-83
2021/08/14 14:02:59;;;;;;;7.00;6.30;;;;;;;30.65;31.93;95301.94;5076820;28;20439;-82
2021/08/14 14:05:26;;;;;;;7.93;7.30;;;;;;;30.62;34.96;95297.84;5077046;28;20536;-82
2021/08/14 14:07:53;;;;;;;10.63;6.23;;;;;;;30.62;34.05;95292.44;5041609;28;20448;-85
2021/08/14 14:10:23;;;;;;;7.73;5.73;;;;;;;30.58;34.06;95287.72;5076959;28;20792;-84
2021/08/14 14:12:50;;;;;;;10.63;7.80;;;;;;;30.28;34.98;95278.00;5076777;28;20535;-81
2021/08/14 14:15:17;;;;;;;6.93;6.40;;;;;;;30.45;33.82;95286.16;5057922;28;20486;-81
2021/08/14 14:17:44;;;;;;;6.77;6.20;;;;;;;30.57;33.56;95278.78;5076458;28;20429;-82
2021/08/14 14:20:11;;;;;;;6.90;6.20;;;;;;;30.64;34.21;95295.72;5076010;28;20549;-82
2021/08/14 14:22:40;;;;;;;6.40;5.80;;;;;;;30.73;33.40;95291.56;5077007;28;20520;-81
2021/08/14 14:25:08;;;;;;;7.10;6.50;;;;;;;30.67;33.52;95289.84;5076349;28;20445;-81
2021/08/14 14:27:36;;;;;;;8.30;6.80;;;;;;;30.66;33.35;95290.06;5041114;28;20445;-81
2021/08/14 14:30:04;;;;;;;7.37;6.07;;;;;;;30.51;33.29;95283.28;5057665;28;20555;-81
2021/08/14 14:32:31;;;;;;;9.80;6.93;;;;;;;30.44;33.69;95281.81;5076269;28;20995;-81
2021/08/14 14:34:58;;;;;;;8.13;6.20;;;;;;;30.43;33.39;95281.00;5057540;28;20481;-81
2021/08/14 14:37:25;;;;;;;6.10;5.50;;;;;;;30.43;33.79;95280.16;5076303;28;20422;-81
2021/08/14 14:39:52;;;;;;;7.10;6.43;;;;;;;30.42;34.50;95281.25;5076417;28;20609;-81
2021/08/14 14:42:19;;;;;;;7.27;6.20;;;;;;;30.46;33.50;95276.97;5056417;28;20784;-81
2021/08/14 14:44:47;;;;;;;6.90;6.30;;;;;;;30.52;34.40;95273.28;5075752;28;20455;-81